sensor_id;sensor_type;location;lat;lon;timestamp;P1;durP1;ratioP1;P2;durP2;ratioP2
44995;SDS011;30729;49.486;10.792;2022-09-13T00:01:41;12.82;;;8.60;;
44995;SDS011;30729;49.486;10.792;2022-09-13T00:04:07;12.60;;;8.32;;
44995;SDS011;30729;49.486;10.792;2022-09-13T00:06:32;14.13;;;8.25;;
44995;SDS011;30729;49.486;10.792;2022-09-13T00:08:58;12.02;;;7.55;;
44995;SDS011;30729;49.486;10.792;2022-09-13T00:11:25;12.45;;;8.05;;
44995;SDS011;30729;49.486;10.792;2022-09-13T00:13:53;14.15;;;8.07;;
44995;SDS011;30729;49.486;10.792;2022-09-13T00:16:20;12.57;;;8.27;;
44995;SDS011;30729;49.486;10.792;2022-09-13T00:18:47;10.73;;;7.88;;
44995;SDS011;30729;49.486;10.792;2022-09-13T00:21:14;13.27;;;8.73;;
44995;SDS011;30729;49.486;10.792;2022-09-13T00:23:45;14.70;;;8.25;;
44995;SDS011;30729;49.486;10.792;2022-09-13T00:26:13;13.25;;;8.25;;
44995;SDS011;30729;49.486;10.792;2022-09-13T00:28:40;11.85;;;8.63;;
44995;SDS011;30729;49.486;10.792;2022-09-13T00:31:06;13.45;;;8.48;;
44995;SDS011;30729;49.486;10.792;2022-09-13T00:33:33;13.02;;;8.70;;
44995;SDS011;30729;49.486;10.792;2022-09-13T00:36:06;13.30;;;9.38;;
44995;SDS011;30729;49.486;10.792;2022-09-13T00:38:36;12.98;;;9.20;;
44995;SDS011;30729;49.486;10.792;2022-09-13T00:41:03;14.05;;;8.43;;
44995;SDS011;30729;49.486;10.792;2022-09-13T00:43:44;13.73;;;9.00;;
44995;SDS011;30729;49.486;10.792;2022-09-13T00:46:56;14.57;;;8.55;;
44995;SDS011;30729;49.486;10.792;2022-09-13T00:52:12;12.68;;;8.20;;
44995;SDS011;30729;49.486;10.792;2022-09-13T00:54:44;14.65;;;8.15;;
44995;SDS011;30729;49.486;10.792;2022-09-13T00:57:14;12.50;;;8.38;;
44995;SDS011;30729;49.486;10.792;2022-09-13T00:59:46;12.82;;;8.73;;
44995;SDS011;30729;49.486;10.792;2022-09-13T01:02:16;12.68;;;8.68;;
44995;SDS011;30729;49.486;10.792;2022-09-13T01:04:42;13.40;;;9.30;;
44995;SDS011;30729;49.486;10.792;2022-09-13T01:07:08;13.55;;;8.55;;
44995;SDS011;30729;49.486;10.792;2022-09-13T01:09:38;13.13;;;8.98;;
44995;SDS011;30729;49.486;10.792;2022-09-13T01:14:51;11.65;;;8.52;;
44995;SDS011;30729;49.486;10.792;2022-09-13T01:17:17;15.82;;;9.90;;
44995;SDS011;30729;49.486;10.792;2022-09-13T01:19:42;16.67;;;10.05;;
44995;SDS011;30729;49.486;10.792;2022-09-13T01:22:17;17.02;;;9.98;;
44995;SDS011;30729;49.486;10.792;2022-09-13T01:30:58;15.50;;;9.38;;
44995;SDS011;30729;49.486;10.792;2022-09-13T01:33:37;14.40;;;8.98;;
44995;SDS011;30729;49.486;10.792;2022-09-13T01:39:03;12.32;;;8.75;;
44995;SDS011;30729;49.486;10.792;2022-09-13T01:52:55;12.13;;;8.32;;
44995;SDS011;30729;49.486;10.792;2022-09-13T02:00:38;12.05;;;8.32;;
44995;SDS011;30729;49.486;10.792;2022-09-13T02:03:11;13.43;;;8.75;;
44995;SDS011;30729;49.486;10.792;2022-09-13T02:08:24;15.65;;;9.27;;
44995;SDS011;30729;49.486;10.792;2022-09-13T02:10:53;19.55;;;11.25;;
44995;SDS011;30729;49.486;10.792;2022-09-13T02:13:26;16.73;;;11.05;;
44995;SDS011;30729;49.486;10.792;2022-09-13T02:15:58;16.33;;;10.98;;
44995;SDS011;30729;49.486;10.792;2022-09-13T02:18:36;18.17;;;12.00;;
44995;SDS011;30729;49.486;10.792;2022-09-13T02:21:07;18.35;;;10.73;;
44995;SDS011;30729;49.486;10.792;2022-09-13T02:23:40;14.15;;;11.27;;
44995;SDS011;30729;49.486;10.792;2022-09-13T02:26:11;15.98;;;11.32;;
44995;SDS011;30729;49.486;10.792;2022-09-13T02:28:43;15.63;;;10.25;;
44995;SDS011;30729;49.486;10.792;2022-09-13T02:31:40;14.50;;;9.85;;
44995;SDS011;30729;49.486;10.792;2022-09-13T02:34:11;17.27;;;10.57;;
44995;SDS011;30729;49.486;10.792;2022-09-13T02:36:42;14.48;;;10.10;;
44995;SDS011;30729;49.486;10.792;2022-09-13T02:39:16;16.17;;;9.80;;
44995;SDS011;30729;49.486;10.792;2022-09-13T02:50:04;14.85;;;10.23;;
44995;SDS011;30729;49.486;10.792;2022-09-13T02:55:32;15.80;;;9.93;;
44995;SDS011;30729;49.486;10.792;2022-09-13T02:58:09;14.80;;;11.20;;
44995;SDS011;30729;49.486;10.792;2022-09-13T03:00:55;14.05;;;9.27;;
44995;SDS011;30729;49.486;10.792;2022-09-13T03:03:20;16.17;;;11.43;;
44995;SDS011;30729;49.486;10.792;2022-09-13T03:05:46;19.15;;;12.20;;
44995;SDS011;30729;49.486;10.792;2022-09-13T03:08:11;18.83;;;11.75;;
44995;SDS011;30729;49.486;10.792;2022-09-13T03:19:52;15.57;;;10.45;;
44995;SDS011;30729;49.486;10.792;2022-09-13T03:24:35;13.90;;;10.15;;
44995;SDS011;30729;49.486;10.792;2022-09-13T03:32:43;17.48;;;11.30;;
44995;SDS011;30729;49.486;10.792;2022-09-13T03:38:18;15.23;;;10.82;;
44995;SDS011;30729;49.486;10.792;2022-09-13T03:40:51;15.35;;;9.38;;
44995;SDS011;30729;49.486;10.792;2022-09-13T03:43:30;13.20;;;9.02;;
44995;SDS011;30729;49.486;10.792;2022-09-13T03:46:07;15.07;;;9.80;;
44995;SDS011;30729;49.486;10.792;2022-09-13T03:48:36;13.50;;;9.65;;
44995;SDS011;30729;49.486;10.792;2022-09-13T03:51:05;18.65;;;10.85;;
44995;SDS011;30729;49.486;10.792;2022-09-13T03:53:31;15.20;;;10.32;;
44995;SDS011;30729;49.486;10.792;2022-09-13T03:56:00;17.63;;;10.60;;
44995;SDS011;30729;49.486;10.792;2022-09-13T03:58:25;14.35;;;10.45;;
44995;SDS011;30729;49.486;10.792;2022-09-13T04:00:51;13.85;;;10.07;;
44995;SDS011;30729;49.486;10.792;2022-09-13T04:03:18;13.50;;;10.13;;
44995;SDS011;30729;49.486;10.792;2022-09-13T04:05:44;14.68;;;10.65;;
44995;SDS011;30729;49.486;10.792;2022-09-13T04:08:10;15.07;;;10.18;;
44995;SDS011;30729;49.486;10.792;2022-09-13T04:10:35;20.85;;;11.77;;
44995;SDS011;30729;49.486;10.792;2022-09-13T04:13:02;13.35;;;10.07;;
44995;SDS011;30729;49.486;10.792;2022-09-13T04:15:28;12.50;;;9.15;;
44995;SDS011;30729;49.486;10.792;2022-09-13T04:17:55;15.00;;;9.23;;
44995;SDS011;30729;49.486;10.792;2022-09-13T04:20:20;15.55;;;9.88;;
44995;SDS011;30729;49.486;10.792;2022-09-13T04:22:52;12.70;;;9.63;;
44995;SDS011;30729;49.486;10.792;2022-09-13T04:25:19;13.02;;;9.20;;
44995;SDS011;30729;49.486;10.792;2022-09-13T04:27:46;15.90;;;9.98;;
44995;SDS011;30729;49.486;10.792;2022-09-13T04:30:12;17.95;;;10.18;;
44995;SDS011;30729;49.486;10.792;2022-09-13T04:32:37;13.73;;;10.50;;
44995;SDS011;30729;49.486;10.792;2022-09-13T04:35:02;16.48;;;11.13;;
44995;SDS011;30729;49.486;10.792;2022-09-13T04:37:28;13.38;;;9.30;;
44995;SDS011;30729;49.486;10.792;2022-09-13T04:39:53;14.60;;;9.05;;
44995;SDS011;30729;49.486;10.792;2022-09-13T04:42:19;12.57;;;9.57;;
44995;SDS011;30729;49.486;10.792;2022-09-13T04:44:44;14.85;;;10.18;;
44995;SDS011;30729;49.486;10.792;2022-09-13T04:47:10;14.95;;;9.65;;
44995;SDS011;30729;49.486;10.792;2022-09-13T04:49:35;14.55;;;9.30;;
44995;SDS011;30729;49.486;10.792;2022-09-13T04:52:00;14.40;;;9.30;;
44995;SDS011;30729;49.486;10.792;2022-09-13T04:54:26;18.15;;;10.13;;
44995;SDS011;30729;49.486;10.792;2022-09-13T04:56:51;15.18;;;10.23;;
44995;SDS011;30729;49.486;10.792;2022-09-13T04:59:17;15.35;;;10.82;;
44995;SDS011;30729;49.486;10.792;2022-09-13T05:01:43;14.02;;;9.88;;
44995;SDS011;30729;49.486;10.792;2022-09-13T05:04:08;14.25;;;9.85;;
44995;SDS011;30729;49.486;10.792;2022-09-13T05:06:34;14.30;;;10.40;;
44995;SDS011;30729;49.486;10.792;2022-09-13T05:09:00;13.80;;;9.60;;
44995;SDS011;30729;49.486;10.792;2022-09-13T05:11:26;15.30;;;10.25;;
44995;SDS011;30729;49.486;10.792;2022-09-13T05:13:53;17.30;;;11.23;;
44995;SDS011;30729;49.486;10.792;2022-09-13T05:16:21;16.92;;;10.48;;
44995;SDS011;30729;49.486;10.792;2022-09-13T05:18:48;15.88;;;9.75;;
44995;SDS011;30729;49.486;10.792;2022-09-13T05:21:14;13.23;;;8.85;;
44995;SDS011;30729;49.486;10.792;2022-09-13T05:23:39;13.77;;;9.60;;
44995;SDS011;30729;49.486;10.792;2022-09-13T05:26:05;16.52;;;9.95;;
44995;SDS011;30729;49.486;10.792;2022-09-13T05:28:32;16.38;;;10.70;;
44995;SDS011;30729;49.486;10.792;2022-09-13T05:31:02;16.70;;;10.80;;
44995;SDS011;30729;49.486;10.792;2022-09-13T05:33:31;13.80;;;10.07;;
44995;SDS011;30729;49.486;10.792;2022-09-13T05:35:58;12.90;;;9.35;;
44995;SDS011;30729;49.486;10.792;2022-09-13T05:38:23;17.17;;;10.18;;
44995;SDS011;30729;49.486;10.792;2022-09-13T05:40:53;16.30;;;10.60;;
44995;SDS011;30729;49.486;10.792;2022-09-13T05:43:23;15.07;;;11.05;;
44995;SDS011;30729;49.486;10.792;2022-09-13T05:45:49;19.85;;;11.32;;
44995;SDS011;30729;49.486;10.792;2022-09-13T05:48:15;16.30;;;10.85;;
44995;SDS011;30729;49.486;10.792;2022-09-13T05:50:40;19.13;;;10.30;;
44995;SDS011;30729;49.486;10.792;2022-09-13T05:53:06;16.88;;;10.88;;
44995;SDS011;30729;49.486;10.792;2022-09-13T05:55:31;17.08;;;10.77;;
44995;SDS011;30729;49.486;10.792;2022-09-13T05:57:58;18.10;;;10.85;;
44995;SDS011;30729;49.486;10.792;2022-09-13T06:00:24;15.98;;;10.27;;
44995;SDS011;30729;49.486;10.792;2022-09-13T06:02:50;14.88;;;10.63;;
44995;SDS011;30729;49.486;10.792;2022-09-13T06:05:15;16.30;;;10.00;;
44995;SDS011;30729;49.486;10.792;2022-09-13T06:07:41;14.23;;;10.38;;
44995;SDS011;30729;49.486;10.792;2022-09-13T06:10:07;18.88;;;10.57;;
44995;SDS011;30729;49.486;10.792;2022-09-13T06:12:33;19.00;;;10.15;;
44995;SDS011;30729;49.486;10.792;2022-09-13T06:14:59;18.25;;;10.38;;
44995;SDS011;30729;49.486;10.792;2022-09-13T06:17:24;23.45;;;10.35;;
44995;SDS011;30729;49.486;10.792;2022-09-13T06:19:50;19.30;;;10.07;;
44995;SDS011;30729;49.486;10.792;2022-09-13T06:22:15;16.00;;;9.43;;
44995;SDS011;30729;49.486;10.792;2022-09-13T06:24:40;14.75;;;9.68;;
44995;SDS011;30729;49.486;10.792;2022-09-13T06:27:06;18.05;;;12.50;;
44995;SDS011;30729;49.486;10.792;2022-09-13T06:29:31;19.65;;;12.43;;
44995;SDS011;30729;49.486;10.792;2022-09-13T06:31:57;17.35;;;12.15;;
44995;SDS011;30729;49.486;10.792;2022-09-13T06:34:22;18.17;;;12.27;;
44995;SDS011;30729;49.486;10.792;2022-09-13T06:36:48;17.65;;;10.95;;
44995;SDS011;30729;49.486;10.792;2022-09-13T06:39:13;16.95;;;10.93;;
44995;SDS011;30729;49.486;10.792;2022-09-13T06:41:39;23.92;;;11.00;;
44995;SDS011;30729;49.486;10.792;2022-09-13T06:44:04;20.95;;;10.50;;
44995;SDS011;30729;49.486;10.792;2022-09-13T06:46:30;14.90;;;11.27;;
44995;SDS011;30729;49.486;10.792;2022-09-13T06:48:58;15.52;;;11.35;;
44995;SDS011;30729;49.486;10.792;2022-09-13T06:51:25;14.45;;;10.50;;
44995;SDS011;30729;49.486;10.792;2022-09-13T06:53:51;18.90;;;11.18;;
44995;SDS011;30729;49.486;10.792;2022-09-13T06:56:21;14.57;;;10.65;;
44995;SDS011;30729;49.486;10.792;2022-09-13T06:58:48;14.80;;;11.23;;
44995;SDS011;30729;49.486;10.792;2022-09-13T07:01:16;14.15;;;10.43;;
44995;SDS011;30729;49.486;10.792;2022-09-13T07:03:44;14.60;;;10.80;;
44995;SDS011;30729;49.486;10.792;2022-09-13T07:06:18;15.35;;;10.45;;
44995;SDS011;30729;49.486;10.792;2022-09-13T07:08:46;14.60;;;11.82;;
44995;SDS011;30729;49.486;10.792;2022-09-13T07:11:14;22.33;;;11.18;;
44995;SDS011;30729;49.486;10.792;2022-09-13T07:13:42;13.50;;;10.80;;
44995;SDS011;30729;49.486;10.792;2022-09-13T07:16:13;18.08;;;10.93;;
44995;SDS011;30729;49.486;10.792;2022-09-13T07:18:38;14.90;;;10.50;;
44995;SDS011;30729;49.486;10.792;2022-09-13T07:21:05;12.93;;;9.95;;
44995;SDS011;30729;49.486;10.792;2022-09-13T07:23:33;13.25;;;8.98;;
44995;SDS011;30729;49.486;10.792;2022-09-13T07:26:00;15.00;;;10.73;;
44995;SDS011;30729;49.486;10.792;2022-09-13T07:28:28;14.75;;;9.82;;
44995;SDS011;30729;49.486;10.792;2022-09-13T07:30:56;15.40;;;9.98;;
44995;SDS011;30729;49.486;10.792;2022-09-13T07:33:28;14.07;;;10.52;;
44995;SDS011;30729;49.486;10.792;2022-09-13T07:35:54;15.90;;;10.98;;
44995;SDS011;30729;49.486;10.792;2022-09-13T07:38:21;14.68;;;10.13;;
44995;SDS011;30729;49.486;10.792;2022-09-13T07:40:55;12.20;;;9.00;;
44995;SDS011;30729;49.486;10.792;2022-09-13T07:43:26;12.45;;;9.70;;
44995;SDS011;30729;49.486;10.792;2022-09-13T07:45:59;13.05;;;9.35;;
44995;SDS011;30729;49.486;10.792;2022-09-13T07:48:45;14.40;;;9.10;;
44995;SDS011;30729;49.486;10.792;2022-09-13T07:53:38;11.52;;;8.50;;
44995;SDS011;30729;49.486;10.792;2022-09-13T07:58:32;12.55;;;7.68;;
44995;SDS011;30729;49.486;10.792;2022-09-13T08:01:03;11.77;;;7.53;;
44995;SDS011;30729;49.486;10.792;2022-09-13T08:03:34;10.13;;;7.47;;
44995;SDS011;30729;49.486;10.792;2022-09-13T08:06:00;11.93;;;7.50;;
44995;SDS011;30729;49.486;10.792;2022-09-13T08:08:26;9.77;;;6.88;;
44995;SDS011;30729;49.486;10.792;2022-09-13T08:10:55;10.60;;;7.53;;
44995;SDS011;30729;49.486;10.792;2022-09-13T08:13:21;13.07;;;7.18;;
44995;SDS011;30729;49.486;10.792;2022-09-13T08:15:47;10.80;;;7.10;;
44995;SDS011;30729;49.486;10.792;2022-09-13T08:18:14;10.18;;;7.43;;
44995;SDS011;30729;49.486;10.792;2022-09-13T08:20:42;12.15;;;6.53;;
44995;SDS011;30729;49.486;10.792;2022-09-13T08:23:08;11.48;;;7.47;;
44995;SDS011;30729;49.486;10.792;2022-09-13T08:25:35;11.30;;;6.90;;
44995;SDS011;30729;49.486;10.792;2022-09-13T08:28:09;12.32;;;6.47;;
44995;SDS011;30729;49.486;10.792;2022-09-13T08:30:39;14.05;;;6.75;;
44995;SDS011;30729;49.486;10.792;2022-09-13T08:33:06;10.05;;;6.70;;
44995;SDS011;30729;49.486;10.792;2022-09-13T08:35:32;9.07;;;6.22;;
44995;SDS011;30729;49.486;10.792;2022-09-13T08:37:58;9.85;;;6.13;;
44995;SDS011;30729;49.486;10.792;2022-09-13T08:40:26;11.80;;;7.70;;
44995;SDS011;30729;49.486;10.792;2022-09-13T08:46:28;9.10;;;6.43;;
44995;SDS011;30729;49.486;10.792;2022-09-13T08:49:00;9.60;;;6.63;;
44995;SDS011;30729;49.486;10.792;2022-09-13T08:54:09;10.90;;;6.65;;
44995;SDS011;30729;49.486;10.792;2022-09-13T08:56:50;9.32;;;7.03;;
44995;SDS011;30729;49.486;10.792;2022-09-13T08:59:33;10.05;;;7.03;;
44995;SDS011;30729;49.486;10.792;2022-09-13T09:05:05;15.05;;;9.50;;
44995;SDS011;30729;49.486;10.792;2022-09-13T09:07:40;14.73;;;9.02;;
44995;SDS011;30729;49.486;10.792;2022-09-13T09:10:21;13.18;;;8.73;;
44995;SDS011;30729;49.486;10.792;2022-09-13T09:12:51;16.10;;;9.48;;
44995;SDS011;30729;49.486;10.792;2022-09-13T09:15:23;13.93;;;9.40;;
44995;SDS011;30729;49.486;10.792;2022-09-13T09:17:54;15.82;;;9.27;;
44995;SDS011;30729;49.486;10.792;2022-09-13T09:20:29;14.68;;;9.20;;
44995;SDS011;30729;49.486;10.792;2022-09-13T09:22:59;14.02;;;8.80;;
44995;SDS011;30729;49.486;10.792;2022-09-13T09:25:29;11.65;;;8.43;;
44995;SDS011;30729;49.486;10.792;2022-09-13T09:27:55;13.25;;;8.80;;
44995;SDS011;30729;49.486;10.792;2022-09-13T09:30:22;11.95;;;8.73;;
44995;SDS011;30729;49.486;10.792;2022-09-13T09:41:00;12.00;;;8.10;;
44995;SDS011;30729;49.486;10.792;2022-09-13T09:43:47;12.75;;;7.70;;
44995;SDS011;30729;49.486;10.792;2022-09-13T09:46:17;10.02;;;7.53;;
44995;SDS011;30729;49.486;10.792;2022-09-13T09:48:50;12.88;;;8.80;;
44995;SDS011;30729;49.486;10.792;2022-09-13T09:51:19;13.20;;;9.15;;
44995;SDS011;30729;49.486;10.792;2022-09-13T09:53:48;12.80;;;8.40;;
44995;SDS011;30729;49.486;10.792;2022-09-13T09:56:21;12.48;;;7.90;;
44995;SDS011;30729;49.486;10.792;2022-09-13T09:58:53;9.68;;;7.10;;
44995;SDS011;30729;49.486;10.792;2022-09-13T10:01:21;12.02;;;7.57;;
44995;SDS011;30729;49.486;10.792;2022-09-13T10:03:52;13.35;;;7.18;;
44995;SDS011;30729;49.486;10.792;2022-09-13T10:06:19;8.35;;;5.93;;
44995;SDS011;30729;49.486;10.792;2022-09-13T10:08:53;9.30;;;5.97;;
44995;SDS011;30729;49.486;10.792;2022-09-13T10:11:23;11.52;;;5.60;;
44995;SDS011;30729;49.486;10.792;2022-09-13T10:14:03;9.90;;;5.20;;
44995;SDS011;30729;49.486;10.792;2022-09-13T10:16:28;8.98;;;5.35;;
44995;SDS011;30729;49.486;10.792;2022-09-13T10:19:14;9.30;;;5.65;;
44995;SDS011;30729;49.486;10.792;2022-09-13T10:24:30;10.40;;;5.25;;
44995;SDS011;30729;49.486;10.792;2022-09-13T10:26:56;9.70;;;5.43;;
44995;SDS011;30729;49.486;10.792;2022-09-13T10:29:23;9.68;;;4.97;;
44995;SDS011;30729;49.486;10.792;2022-09-13T10:31:51;9.45;;;5.55;;
44995;SDS011;30729;49.486;10.792;2022-09-13T10:34:22;9.52;;;5.40;;
44995;SDS011;30729;49.486;10.792;2022-09-13T10:36:53;8.18;;;5.20;;
44995;SDS011;30729;49.486;10.792;2022-09-13T10:39:21;11.38;;;6.07;;
44995;SDS011;30729;49.486;10.792;2022-09-13T10:41:49;7.70;;;5.40;;
44995;SDS011;30729;49.486;10.792;2022-09-13T10:47:21;8.27;;;5.35;;
44995;SDS011;30729;49.486;10.792;2022-09-13T10:49:52;9.45;;;5.25;;
44995;SDS011;30729;49.486;10.792;2022-09-13T10:52:37;8.13;;;5.15;;
44995;SDS011;30729;49.486;10.792;2022-09-13T10:57:45;7.60;;;4.90;;
44995;SDS011;30729;49.486;10.792;2022-09-13T11:00:19;9.20;;;5.00;;
44995;SDS011;30729;49.486;10.792;2022-09-13T11:03:05;7.65;;;5.20;;
44995;SDS011;30729;49.486;10.792;2022-09-13T11:08:49;13.33;;;5.07;;
44995;SDS011;30729;49.486;10.792;2022-09-13T11:16:49;9.02;;;4.63;;
44995;SDS011;30729;49.486;10.792;2022-09-13T11:30:23;9.48;;;4.13;;
44995;SDS011;30729;49.486;10.792;2022-09-13T11:55:42;8.27;;;4.47;;
44995;SDS011;30729;49.486;10.792;2022-09-13T11:58:10;7.07;;;4.30;;
44995;SDS011;30729;49.486;10.792;2022-09-13T12:00:48;10.23;;;5.30;;
44995;SDS011;30729;49.486;10.792;2022-09-13T12:03:24;9.23;;;5.32;;
44995;SDS011;30729;49.486;10.792;2022-09-13T12:06:15;7.57;;;5.05;;
44995;SDS011;30729;49.486;10.792;2022-09-13T12:08:49;7.65;;;4.72;;
44995;SDS011;30729;49.486;10.792;2022-09-13T12:11:22;6.80;;;4.70;;
44995;SDS011;30729;49.486;10.792;2022-09-13T12:13:56;9.52;;;5.03;;
44995;SDS011;30729;49.486;10.792;2022-09-13T12:16:40;10.15;;;5.57;;
44995;SDS011;30729;49.486;10.792;2022-09-13T12:21:47;8.80;;;5.45;;
44995;SDS011;30729;49.486;10.792;2022-09-13T12:24:16;8.00;;;4.32;;
44995;SDS011;30729;49.486;10.792;2022-09-13T12:29:43;7.68;;;4.82;;
44995;SDS011;30729;49.486;10.792;2022-09-13T12:32:14;7.47;;;5.00;;
44995;SDS011;30729;49.486;10.792;2022-09-13T12:34:43;9.32;;;5.00;;
44995;SDS011;30729;49.486;10.792;2022-09-13T12:48:51;7.22;;;4.50;;
44995;SDS011;30729;49.486;10.792;2022-09-13T12:59:53;11.00;;;4.43;;
44995;SDS011;30729;49.486;10.792;2022-09-13T13:05:13;7.90;;;5.03;;
44995;SDS011;30729;49.486;10.792;2022-09-13T13:07:50;8.70;;;4.35;;
44995;SDS011;30729;49.486;10.792;2022-09-13T13:13:30;6.82;;;3.97;;
44995;SDS011;30729;49.486;10.792;2022-09-13T13:16:00;8.63;;;3.88;;
44995;SDS011;30729;49.486;10.792;2022-09-13T13:18:45;6.57;;;3.47;;
44995;SDS011;30729;49.486;10.792;2022-09-13T13:21:46;9.45;;;3.40;;
44995;SDS011;30729;49.486;10.792;2022-09-13T13:29:17;6.70;;;3.28;;
44995;SDS011;30729;49.486;10.792;2022-09-13T13:36:47;7.25;;;4.38;;
44995;SDS011;30729;49.486;10.792;2022-09-13T13:46:47;9.15;;;3.80;;
44995;SDS011;30729;49.486;10.792;2022-09-13T13:55:02;9.60;;;4.53;;
44995;SDS011;30729;49.486;10.792;2022-09-13T13:58:02;6.70;;;3.78;;
44995;SDS011;30729;49.486;10.792;2022-09-13T14:00:36;6.00;;;3.53;;
44995;SDS011;30729;49.486;10.792;2022-09-13T14:17:16;9.57;;;4.28;;
44995;SDS011;30729;49.486;10.792;2022-09-13T14:19:59;6.32;;;3.38;;
44995;SDS011;30729;49.486;10.792;2022-09-13T14:22:38;6.95;;;3.72;;
44995;SDS011;30729;49.486;10.792;2022-09-13T14:27:45;7.90;;;4.15;;
44995;SDS011;30729;49.486;10.792;2022-09-13T14:32:44;7.40;;;4.00;;
44995;SDS011;30729;49.486;10.792;2022-09-13T14:35:28;7.45;;;3.97;;
44995;SDS011;30729;49.486;10.792;2022-09-13T14:40:34;5.97;;;3.60;;
44995;SDS011;30729;49.486;10.792;2022-09-13T14:43:01;6.65;;;3.95;;
44995;SDS011;30729;49.486;10.792;2022-09-13T14:45:39;6.78;;;3.90;;
44995;SDS011;30729;49.486;10.792;2022-09-13T14:48:06;9.93;;;5.65;;
44995;SDS011;30729;49.486;10.792;2022-09-13T14:50:40;6.55;;;3.90;;
44995;SDS011;30729;49.486;10.792;2022-09-13T14:53:15;5.38;;;3.50;;
44995;SDS011;30729;49.486;10.792;2022-09-13T14:55:46;8.52;;;3.90;;
44995;SDS011;30729;49.486;10.792;2022-09-13T14:58:47;6.90;;;3.78;;
44995;SDS011;30729;49.486;10.792;2022-09-13T15:01:17;7.93;;;4.10;;
44995;SDS011;30729;49.486;10.792;2022-09-13T15:03:46;8.05;;;3.58;;
44995;SDS011;30729;49.486;10.792;2022-09-13T15:06:23;6.60;;;4.53;;
44995;SDS011;30729;49.486;10.792;2022-09-13T15:08:51;8.18;;;3.83;;
44995;SDS011;30729;49.486;10.792;2022-09-13T15:11:31;6.95;;;3.65;;
44995;SDS011;30729;49.486;10.792;2022-09-13T15:14:00;7.32;;;3.88;;
44995;SDS011;30729;49.486;10.792;2022-09-13T15:16:46;9.57;;;3.85;;
44995;SDS011;30729;49.486;10.792;2022-09-13T15:19:14;6.28;;;3.97;;
44995;SDS011;30729;49.486;10.792;2022-09-13T15:21:48;7.43;;;3.92;;
44995;SDS011;30729;49.486;10.792;2022-09-13T15:24:20;6.03;;;3.50;;
44995;SDS011;30729;49.486;10.792;2022-09-13T15:26:59;6.40;;;4.07;;
44995;SDS011;30729;49.486;10.792;2022-09-13T15:29:27;7.80;;;4.03;;
44995;SDS011;30729;49.486;10.792;2022-09-13T15:31:57;7.38;;;3.92;;
44995;SDS011;30729;49.486;10.792;2022-09-13T15:34:23;7.07;;;3.90;;
44995;SDS011;30729;49.486;10.792;2022-09-13T15:39:29;9.27;;;4.20;;
44995;SDS011;30729;49.486;10.792;2022-09-13T15:42:09;7.97;;;4.13;;
44995;SDS011;30729;49.486;10.792;2022-09-13T15:44:35;8.77;;;4.20;;
44995;SDS011;30729;49.486;10.792;2022-09-13T15:47:01;8.65;;;3.65;;
44995;SDS011;30729;49.486;10.792;2022-09-13T15:49:32;9.73;;;4.60;;
44995;SDS011;30729;49.486;10.792;2022-09-13T15:51:58;8.23;;;4.40;;
44995;SDS011;30729;49.486;10.792;2022-09-13T15:54:32;8.10;;;4.07;;
44995;SDS011;30729;49.486;10.792;2022-09-13T15:57:01;8.00;;;4.28;;
44995;SDS011;30729;49.486;10.792;2022-09-13T15:59:30;7.93;;;4.38;;
44995;SDS011;30729;49.486;10.792;2022-09-13T16:01:56;8.18;;;5.00;;
44995;SDS011;30729;49.486;10.792;2022-09-13T16:04:22;8.38;;;4.72;;
44995;SDS011;30729;49.486;10.792;2022-09-13T16:06:47;9.13;;;4.13;;
44995;SDS011;30729;49.486;10.792;2022-09-13T16:09:17;7.28;;;4.15;;
44995;SDS011;30729;49.486;10.792;2022-09-13T16:11:47;7.25;;;4.75;;
44995;SDS011;30729;49.486;10.792;2022-09-13T16:14:14;8.60;;;4.60;;
44995;SDS011;30729;49.486;10.792;2022-09-13T16:16:40;7.38;;;4.30;;
44995;SDS011;30729;49.486;10.792;2022-09-13T16:19:08;6.68;;;4.65;;
44995;SDS011;30729;49.486;10.792;2022-09-13T16:21:39;8.05;;;4.95;;
44995;SDS011;30729;49.486;10.792;2022-09-13T16:24:04;9.35;;;5.30;;
44995;SDS011;30729;49.486;10.792;2022-09-13T16:26:30;9.30;;;4.78;;
44995;SDS011;30729;49.486;10.792;2022-09-13T16:28:56;8.35;;;4.43;;
44995;SDS011;30729;49.486;10.792;2022-09-13T16:31:22;8.65;;;4.18;;
44995;SDS011;30729;49.486;10.792;2022-09-13T16:33:47;8.30;;;4.00;;
44995;SDS011;30729;49.486;10.792;2022-09-13T16:36:12;6.65;;;4.22;;
44995;SDS011;30729;49.486;10.792;2022-09-13T16:38:38;7.53;;;4.03;;
44995;SDS011;30729;49.486;10.792;2022-09-13T16:41:04;8.20;;;4.65;;
44995;SDS011;30729;49.486;10.792;2022-09-13T16:43:29;10.07;;;5.07;;
44995;SDS011;30729;49.486;10.792;2022-09-13T16:45:57;8.68;;;4.93;;
44995;SDS011;30729;49.486;10.792;2022-09-13T16:48:22;8.43;;;5.32;;
44995;SDS011;30729;49.486;10.792;2022-09-13T16:50:48;8.18;;;4.57;;
44995;SDS011;30729;49.486;10.792;2022-09-13T16:53:13;7.68;;;4.97;;
44995;SDS011;30729;49.486;10.792;2022-09-13T16:55:39;11.50;;;4.95;;
44995;SDS011;30729;49.486;10.792;2022-09-13T16:58:04;13.05;;;8.35;;
44995;SDS011;30729;49.486;10.792;2022-09-13T17:00:30;13.00;;;7.93;;
44995;SDS011;30729;49.486;10.792;2022-09-13T17:02:55;9.23;;;5.47;;
44995;SDS011;30729;49.486;10.792;2022-09-13T17:05:21;11.50;;;6.03;;
44995;SDS011;30729;49.486;10.792;2022-09-13T17:07:48;10.20;;;5.78;;
44995;SDS011;30729;49.486;10.792;2022-09-13T17:10:15;11.25;;;6.07;;
44995;SDS011;30729;49.486;10.792;2022-09-13T17:12:41;11.30;;;6.57;;
44995;SDS011;30729;49.486;10.792;2022-09-13T17:15:06;10.75;;;6.32;;
44995;SDS011;30729;49.486;10.792;2022-09-13T17:17:32;14.30;;;7.20;;
44995;SDS011;30729;49.486;10.792;2022-09-13T17:20:00;11.07;;;5.90;;
44995;SDS011;30729;49.486;10.792;2022-09-13T17:22:29;10.20;;;6.97;;
44995;SDS011;30729;49.486;10.792;2022-09-13T17:24:55;9.80;;;6.13;;
44995;SDS011;30729;49.486;10.792;2022-09-13T17:27:21;8.70;;;6.30;;
44995;SDS011;30729;49.486;10.792;2022-09-13T17:29:46;10.40;;;6.05;;
44995;SDS011;30729;49.486;10.792;2022-09-13T17:32:11;11.57;;;5.88;;
44995;SDS011;30729;49.486;10.792;2022-09-13T17:34:37;17.15;;;12.07;;
44995;SDS011;30729;49.486;10.792;2022-09-13T17:37:02;14.27;;;9.55;;
44995;SDS011;30729;49.486;10.792;2022-09-13T17:39:29;9.00;;;6.35;;
44995;SDS011;30729;49.486;10.792;2022-09-13T17:41:55;8.55;;;5.30;;
44995;SDS011;30729;49.486;10.792;2022-09-13T17:44:20;8.57;;;5.20;;
44995;SDS011;30729;49.486;10.792;2022-09-13T17:46:46;9.20;;;5.70;;
44995;SDS011;30729;49.486;10.792;2022-09-13T17:49:11;8.90;;;5.90;;
44995;SDS011;30729;49.486;10.792;2022-09-13T17:51:37;9.57;;;5.43;;
44995;SDS011;30729;49.486;10.792;2022-09-13T17:54:03;8.00;;;5.00;;
44995;SDS011;30729;49.486;10.792;2022-09-13T17:56:31;15.60;;;10.77;;
44995;SDS011;30729;49.486;10.792;2022-09-13T17:59:07;23.00;;;14.00;;
44995;SDS011;30729;49.486;10.792;2022-09-13T18:01:37;23.90;;;14.45;;
44995;SDS011;30729;49.486;10.792;2022-09-13T18:04:05;22.30;;;14.82;;
44995;SDS011;30729;49.486;10.792;2022-09-13T18:06:32;19.52;;;13.35;;
44995;SDS011;30729;49.486;10.792;2022-09-13T18:08:58;20.63;;;15.15;;
44995;SDS011;30729;49.486;10.792;2022-09-13T18:11:24;18.80;;;14.98;;
44995;SDS011;30729;49.486;10.792;2022-09-13T18:13:49;18.33;;;12.63;;
44995;SDS011;30729;49.486;10.792;2022-09-13T18:16:22;15.15;;;11.00;;